sensor_id;sensor_type;location;lat;lon;timestamp;P1;durP1;ratioP1;P2;durP2;ratioP2
2213;SDS011;1113;42.018;23.986;2023-04-06T00:02:05;18.20;;;13.18;;
2213;SDS011;1113;42.018;23.986;2023-04-06T00:04:31;21.38;;;15.00;;
2213;SDS011;1113;42.018;23.986;2023-04-06T00:06:58;22.67;;;14.70;;
2213;SDS011;1113;42.018;23.986;2023-04-06T00:09:24;16.65;;;12.90;;
2213;SDS011;1113;42.018;23.986;2023-04-06T00:11:52;19.17;;;13.65;;
2213;SDS011;1113;42.018;23.986;2023-04-06T00:14:20;22.52;;;15.20;;
2213;SDS011;1113;42.018;23.986;2023-04-06T00:16:46;21.48;;;14.27;;
2213;SDS011;1113;42.018;23.986;2023-04-06T00:19:13;18.33;;;13.73;;
2213;SDS011;1113;42.018;23.986;2023-04-06T00:21:39;16.92;;;12.02;;
2213;SDS011;1113;42.018;23.986;2023-04-06T00:24:06;21.80;;;14.52;;
2213;SDS011;1113;42.018;23.986;2023-04-06T00:26:33;37.55;;;21.30;;
2213;SDS011;1113;42.018;23.986;2023-04-06T00:29:01;21.88;;;15.02;;
2213;SDS011;1113;42.018;23.986;2023-04-06T00:31:27;21.90;;;15.40;;
2213;SDS011;1113;42.018;23.986;2023-04-06T00:33:54;20.10;;;15.40;;
2213;SDS011;1113;42.018;23.986;2023-04-06T00:36:20;23.13;;;15.88;;
2213;SDS011;1113;42.018;23.986;2023-04-06T00:38:47;23.55;;;16.58;;
2213;SDS011;1113;42.018;23.986;2023-04-06T00:41:14;31.20;;;21.75;;
2213;SDS011;1113;42.018;23.986;2023-04-06T00:43:40;34.17;;;21.58;;
2213;SDS011;1113;42.018;23.986;2023-04-06T00:46:08;94.65;;;43.75;;
2213;SDS011;1113;42.018;23.986;2023-04-06T00:48:35;39.05;;;23.05;;
2213;SDS011;1113;42.018;23.986;2023-04-06T00:51:01;22.50;;;15.35;;
2213;SDS011;1113;42.018;23.986;2023-04-06T00:53:29;35.90;;;21.83;;
2213;SDS011;1113;42.018;23.986;2023-04-06T00:55:56;22.55;;;15.43;;
2213;SDS011;1113;42.018;23.986;2023-04-06T00:58:23;24.00;;;16.65;;
2213;SDS011;1113;42.018;23.986;2023-04-06T01:00:50;21.15;;;15.52;;
2213;SDS011;1113;42.018;23.986;2023-04-06T01:03:18;23.23;;;15.35;;
2213;SDS011;1113;42.018;23.986;2023-04-06T01:05:44;20.58;;;15.02;;
2213;SDS011;1113;42.018;23.986;2023-04-06T01:08:11;19.58;;;15.30;;
2213;SDS011;1113;42.018;23.986;2023-04-06T01:10:38;24.15;;;16.77;;
2213;SDS011;1113;42.018;23.986;2023-04-06T01:13:04;26.00;;;18.02;;
2213;SDS011;1113;42.018;23.986;2023-04-06T01:15:32;24.02;;;16.92;;
2213;SDS011;1113;42.018;23.986;2023-04-06T01:18:00;28.23;;;16.80;;
2213;SDS011;1113;42.018;23.986;2023-04-06T01:20:28;28.95;;;17.75;;
2213;SDS011;1113;42.018;23.986;2023-04-06T01:22:57;22.65;;;16.30;;
2213;SDS011;1113;42.018;23.986;2023-04-06T01:25:23;26.00;;;18.38;;
2213;SDS011;1113;42.018;23.986;2023-04-06T01:27:50;26.10;;;17.95;;
2213;SDS011;1113;42.018;23.986;2023-04-06T01:30:16;27.00;;;18.65;;
2213;SDS011;1113;42.018;23.986;2023-04-06T01:32:43;25.17;;;18.42;;
2213;SDS011;1113;42.018;23.986;2023-04-06T01:35:10;26.15;;;17.35;;
2213;SDS011;1113;42.018;23.986;2023-04-06T01:37:36;26.30;;;19.30;;
2213;SDS011;1113;42.018;23.986;2023-04-06T01:40:05;36.20;;;21.83;;
2213;SDS011;1113;42.018;23.986;2023-04-06T01:42:32;34.42;;;22.40;;
2213;SDS011;1113;42.018;23.986;2023-04-06T01:44:58;30.27;;;22.15;;
2213;SDS011;1113;42.018;23.986;2023-04-06T01:47:25;27.40;;;18.73;;
2213;SDS011;1113;42.018;23.986;2023-04-06T01:49:52;27.23;;;18.73;;
2213;SDS011;1113;42.018;23.986;2023-04-06T01:52:18;26.25;;;17.80;;
2213;SDS011;1113;42.018;23.986;2023-04-06T01:54:46;28.80;;;17.90;;
2213;SDS011;1113;42.018;23.986;2023-04-06T01:57:14;26.23;;;18.17;;
2213;SDS011;1113;42.018;23.986;2023-04-06T01:59:40;29.13;;;17.80;;
2213;SDS011;1113;42.018;23.986;2023-04-06T02:02:07;26.52;;;18.20;;
2213;SDS011;1113;42.018;23.986;2023-04-06T02:04:33;25.70;;;19.27;;
2213;SDS011;1113;42.018;23.986;2023-04-06T02:07:00;28.48;;;17.88;;
2213;SDS011;1113;42.018;23.986;2023-04-06T02:09:29;26.77;;;16.73;;
2213;SDS011;1113;42.018;23.986;2023-04-06T02:11:56;26.15;;;16.40;;
2213;SDS011;1113;42.018;23.986;2023-04-06T02:14:24;23.17;;;16.63;;
2213;SDS011;1113;42.018;23.986;2023-04-06T02:16:51;24.25;;;16.70;;
2213;SDS011;1113;42.018;23.986;2023-04-06T02:19:18;25.23;;;17.08;;
2213;SDS011;1113;42.018;23.986;2023-04-06T02:21:44;28.70;;;19.50;;
2213;SDS011;1113;42.018;23.986;2023-04-06T02:24:11;26.23;;;17.70;;
2213;SDS011;1113;42.018;23.986;2023-04-06T02:26:38;30.45;;;20.58;;
2213;SDS011;1113;42.018;23.986;2023-04-06T02:29:04;28.85;;;18.60;;
2213;SDS011;1113;42.018;23.986;2023-04-06T02:31:33;24.20;;;18.20;;
2213;SDS011;1113;42.018;23.986;2023-04-06T02:33:59;26.60;;;17.02;;
2213;SDS011;1113;42.018;23.986;2023-04-06T02:36:26;29.05;;;19.40;;
2213;SDS011;1113;42.018;23.986;2023-04-06T02:38:52;27.95;;;17.58;;
2213;SDS011;1113;42.018;23.986;2023-04-06T02:41:19;26.65;;;20.30;;
2213;SDS011;1113;42.018;23.986;2023-04-06T02:43:46;22.48;;;16.08;;
2213;SDS011;1113;42.018;23.986;2023-04-06T02:46:12;28.63;;;17.83;;
2213;SDS011;1113;42.018;23.986;2023-04-06T02:48:40;27.20;;;17.88;;
2213;SDS011;1113;42.018;23.986;2023-04-06T02:51:07;27.60;;;18.17;;
2213;SDS011;1113;42.018;23.986;2023-04-06T02:53:33;38.55;;;20.88;;
2213;SDS011;1113;42.018;23.986;2023-04-06T02:56:00;25.13;;;17.98;;
2213;SDS011;1113;42.018;23.986;2023-04-06T02:58:27;29.75;;;18.90;;
2213;SDS011;1113;42.018;23.986;2023-04-06T03:00:54;30.77;;;19.40;;
2213;SDS011;1113;42.018;23.986;2023-04-06T03:03:21;27.95;;;18.80;;
2213;SDS011;1113;42.018;23.986;2023-04-06T03:05:49;32.13;;;20.02;;
2213;SDS011;1113;42.018;23.986;2023-04-06T03:08:15;29.67;;;21.00;;
2213;SDS011;1113;42.018;23.986;2023-04-06T03:10:42;47.53;;;29.17;;
2213;SDS011;1113;42.018;23.986;2023-04-06T03:13:08;32.20;;;22.05;;
2213;SDS011;1113;42.018;23.986;2023-04-06T03:15:35;32.05;;;21.52;;
2213;SDS011;1113;42.018;23.986;2023-04-06T03:18:02;28.63;;;20.20;;
2213;SDS011;1113;42.018;23.986;2023-04-06T03:20:29;30.90;;;21.00;;
2213;SDS011;1113;42.018;23.986;2023-04-06T03:22:57;31.38;;;21.52;;
2213;SDS011;1113;42.018;23.986;2023-04-06T03:25:24;35.85;;;22.25;;
2213;SDS011;1113;42.018;23.986;2023-04-06T03:27:50;35.97;;;23.85;;
2213;SDS011;1113;42.018;23.986;2023-04-06T03:30:17;35.58;;;25.00;;
2213;SDS011;1113;42.018;23.986;2023-04-06T03:32:44;47.45;;;31.33;;
2213;SDS011;1113;42.018;23.986;2023-04-06T03:35:10;45.42;;;30.88;;
2213;SDS011;1113;42.018;23.986;2023-04-06T03:37:37;50.97;;;34.78;;
2213;SDS011;1113;42.018;23.986;2023-04-06T03:40:06;49.63;;;31.67;;
2213;SDS011;1113;42.018;23.986;2023-04-06T03:42:32;49.80;;;33.00;;
2213;SDS011;1113;42.018;23.986;2023-04-06T03:44:59;40.88;;;30.75;;
2213;SDS011;1113;42.018;23.986;2023-04-06T03:47:26;45.10;;;31.70;;
2213;SDS011;1113;42.018;23.986;2023-04-06T03:49:52;41.42;;;28.80;;
2213;SDS011;1113;42.018;23.986;2023-04-06T03:52:19;44.08;;;29.23;;
2213;SDS011;1113;42.018;23.986;2023-04-06T03:54:47;29.17;;;18.63;;
2213;SDS011;1113;42.018;23.986;2023-04-06T03:57:15;25.13;;;17.48;;
2213;SDS011;1113;42.018;23.986;2023-04-06T03:59:42;26.23;;;17.50;;
2213;SDS011;1113;42.018;23.986;2023-04-06T04:02:09;24.67;;;17.13;;
2213;SDS011;1113;42.018;23.986;2023-04-06T04:04:35;23.35;;;16.08;;
2213;SDS011;1113;42.018;23.986;2023-04-06T04:07:05;23.30;;;14.38;;
2213;SDS011;1113;42.018;23.986;2023-04-06T04:09:32;19.85;;;13.32;;
2213;SDS011;1113;42.018;23.986;2023-04-06T04:11:58;19.10;;;13.73;;
2213;SDS011;1113;42.018;23.986;2023-04-06T04:14:26;20.42;;;13.63;;
2213;SDS011;1113;42.018;23.986;2023-04-06T04:16:53;18.45;;;13.05;;
2213;SDS011;1113;42.018;23.986;2023-04-06T04:19:19;19.42;;;13.32;;
2213;SDS011;1113;42.018;23.986;2023-04-06T04:21:46;24.08;;;16.15;;
2213;SDS011;1113;42.018;23.986;2023-04-06T04:24:13;23.08;;;15.82;;
2213;SDS011;1113;42.018;23.986;2023-04-06T04:26:39;22.30;;;14.50;;
2213;SDS011;1113;42.018;23.986;2023-04-06T04:29:06;23.25;;;13.80;;
2213;SDS011;1113;42.018;23.986;2023-04-06T04:31:34;19.42;;;12.63;;
2213;SDS011;1113;42.018;23.986;2023-04-06T04:34:01;18.20;;;12.45;;
2213;SDS011;1113;42.018;23.986;2023-04-06T04:36:28;19.83;;;13.68;;
2213;SDS011;1113;42.018;23.986;2023-04-06T04:38:56;20.23;;;13.13;;
2213;SDS011;1113;42.018;23.986;2023-04-06T04:41:23;21.60;;;13.77;;
2213;SDS011;1113;42.018;23.986;2023-04-06T04:43:49;22.30;;;12.65;;
2213;SDS011;1113;42.018;23.986;2023-04-06T04:46:16;19.17;;;13.20;;
2213;SDS011;1113;42.018;23.986;2023-04-06T04:48:44;21.98;;;12.95;;
2213;SDS011;1113;42.018;23.986;2023-04-06T04:51:10;20.63;;;13.57;;
2213;SDS011;1113;42.018;23.986;2023-04-06T04:53:37;18.52;;;13.75;;
2213;SDS011;1113;42.018;23.986;2023-04-06T04:56:04;29.17;;;20.33;;
2213;SDS011;1113;42.018;23.986;2023-04-06T04:58:30;41.70;;;28.55;;
2213;SDS011;1113;42.018;23.986;2023-04-06T05:00:57;46.55;;;33.33;;
2213;SDS011;1113;42.018;23.986;2023-04-06T05:03:24;43.47;;;31.55;;
2213;SDS011;1113;42.018;23.986;2023-04-06T05:05:52;44.58;;;32.28;;
2213;SDS011;1113;42.018;23.986;2023-04-06T05:08:19;40.30;;;27.33;;
2213;SDS011;1113;42.018;23.986;2023-04-06T05:10:46;36.08;;;23.65;;
2213;SDS011;1113;42.018;23.986;2023-04-06T05:13:13;37.47;;;25.25;;
2213;SDS011;1113;42.018;23.986;2023-04-06T05:15:40;33.22;;;22.33;;
2213;SDS011;1113;42.018;23.986;2023-04-06T05:18:07;29.63;;;19.42;;
2213;SDS011;1113;42.018;23.986;2023-04-06T05:20:34;27.80;;;18.33;;
2213;SDS011;1113;42.018;23.986;2023-04-06T05:23:02;24.30;;;17.33;;
2213;SDS011;1113;42.018;23.986;2023-04-06T05:25:28;41.67;;;26.73;;
2213;SDS011;1113;42.018;23.986;2023-04-06T05:27:55;43.75;;;30.85;;
2213;SDS011;1113;42.018;23.986;2023-04-06T05:30:22;50.05;;;32.05;;
2213;SDS011;1113;42.018;23.986;2023-04-06T05:32:48;49.78;;;32.10;;
2213;SDS011;1113;42.018;23.986;2023-04-06T05:35:16;47.05;;;33.67;;
2213;SDS011;1113;42.018;23.986;2023-04-06T05:37:43;41.67;;;27.85;;
2213;SDS011;1113;42.018;23.986;2023-04-06T05:40:11;36.13;;;27.13;;
2213;SDS011;1113;42.018;23.986;2023-04-06T05:42:38;41.83;;;29.40;;
2213;SDS011;1113;42.018;23.986;2023-04-06T05:45:06;35.40;;;26.20;;
2213;SDS011;1113;42.018;23.986;2023-04-06T05:47:33;30.15;;;21.98;;
2213;SDS011;1113;42.018;23.986;2023-04-06T05:49:59;30.17;;;21.40;;
2213;SDS011;1113;42.018;23.986;2023-04-06T05:52:26;34.40;;;25.98;;
2213;SDS011;1113;42.018;23.986;2023-04-06T05:54:53;31.20;;;20.40;;
2213;SDS011;1113;42.018;23.986;2023-04-06T05:57:22;24.10;;;17.30;;
2213;SDS011;1113;42.018;23.986;2023-04-06T05:59:49;24.60;;;16.52;;
2213;SDS011;1113;42.018;23.986;2023-04-06T06:02:16;29.17;;;20.13;;
2213;SDS011;1113;42.018;23.986;2023-04-06T06:04:42;31.88;;;21.25;;
2213;SDS011;1113;42.018;23.986;2023-04-06T06:07:09;33.80;;;21.58;;
2213;SDS011;1113;42.018;23.986;2023-04-06T06:09:35;27.63;;;20.42;;
2213;SDS011;1113;42.018;23.986;2023-04-06T06:12:02;28.77;;;19.73;;
2213;SDS011;1113;42.018;23.986;2023-04-06T06:14:31;25.65;;;20.20;;
2213;SDS011;1113;42.018;23.986;2023-04-06T06:16:57;29.88;;;22.17;;
2213;SDS011;1113;42.018;23.986;2023-04-06T06:19:24;29.17;;;19.83;;
2213;SDS011;1113;42.018;23.986;2023-04-06T06:21:50;29.40;;;19.63;;
2213;SDS011;1113;42.018;23.986;2023-04-06T06:24:17;30.05;;;20.30;;
2213;SDS011;1113;42.018;23.986;2023-04-06T06:26:43;34.13;;;21.80;;
2213;SDS011;1113;42.018;23.986;2023-04-06T06:29:10;34.78;;;23.60;;
2213;SDS011;1113;42.018;23.986;2023-04-06T06:31:38;33.97;;;23.10;;
2213;SDS011;1113;42.018;23.986;2023-04-06T06:34:05;36.80;;;24.70;;
2213;SDS011;1113;42.018;23.986;2023-04-06T06:36:31;37.17;;;25.00;;
2213;SDS011;1113;42.018;23.986;2023-04-06T06:38:58;32.65;;;21.83;;
2213;SDS011;1113;42.018;23.986;2023-04-06T06:41:25;33.25;;;22.63;;
2213;SDS011;1113;42.018;23.986;2023-04-06T06:43:52;31.88;;;21.50;;
2213;SDS011;1113;42.018;23.986;2023-04-06T06:46:19;33.58;;;22.90;;
2213;SDS011;1113;42.018;23.986;2023-04-06T06:48:47;31.77;;;22.58;;
2213;SDS011;1113;42.018;23.986;2023-04-06T06:51:14;38.10;;;23.67;;
2213;SDS011;1113;42.018;23.986;2023-04-06T06:53:41;34.10;;;23.70;;
2213;SDS011;1113;42.018;23.986;2023-04-06T06:56:07;31.48;;;21.85;;
2213;SDS011;1113;42.018;23.986;2023-04-06T06:58:34;38.70;;;26.92;;
2213;SDS011;1113;42.018;23.986;2023-04-06T07:01:01;40.30;;;26.33;;
2213;SDS011;1113;42.018;23.986;2023-04-06T07:03:30;34.72;;;23.05;;
2213;SDS011;1113;42.018;23.986;2023-04-06T07:05:58;36.72;;;24.60;;
2213;SDS011;1113;42.018;23.986;2023-04-06T07:08:25;30.00;;;21.75;;
2213;SDS011;1113;42.018;23.986;2023-04-06T07:10:52;29.83;;;20.15;;
2213;SDS011;1113;42.018;23.986;2023-04-06T07:13:21;29.67;;;18.63;;
2213;SDS011;1113;42.018;23.986;2023-04-06T07:15:48;29.60;;;19.95;;
2213;SDS011;1113;42.018;23.986;2023-04-06T07:18:15;30.00;;;20.17;;
2213;SDS011;1113;42.018;23.986;2023-04-06T07:20:42;31.48;;;21.20;;
2213;SDS011;1113;42.018;23.986;2023-04-06T07:23:10;33.13;;;22.13;;
2213;SDS011;1113;42.018;23.986;2023-04-06T07:25:36;33.83;;;22.05;;
2213;SDS011;1113;42.018;23.986;2023-04-06T07:28:03;29.67;;;19.77;;
2213;SDS011;1113;42.018;23.986;2023-04-06T07:30:30;28.27;;;20.67;;
2213;SDS011;1113;42.018;23.986;2023-04-06T07:32:56;31.80;;;21.83;;
2213;SDS011;1113;42.018;23.986;2023-04-06T07:35:24;34.60;;;23.55;;
2213;SDS011;1113;42.018;23.986;2023-04-06T07:37:51;32.00;;;22.10;;
2213;SDS011;1113;42.018;23.986;2023-04-06T07:40:19;30.27;;;19.13;;
2213;SDS011;1113;42.018;23.986;2023-04-06T07:42:46;30.38;;;18.92;;
2213;SDS011;1113;42.018;23.986;2023-04-06T07:45:12;31.58;;;20.38;;
2213;SDS011;1113;42.018;23.986;2023-04-06T07:47:40;28.08;;;19.90;;
2213;SDS011;1113;42.018;23.986;2023-04-06T07:50:08;26.15;;;18.55;;
2213;SDS011;1113;42.018;23.986;2023-04-06T07:52:35;29.40;;;19.50;;
2213;SDS011;1113;42.018;23.986;2023-04-06T07:55:02;25.45;;;18.55;;
2213;SDS011;1113;42.018;23.986;2023-04-06T07:57:30;25.02;;;17.60;;
2213;SDS011;1113;42.018;23.986;2023-04-06T07:59:57;28.58;;;18.83;;
2213;SDS011;1113;42.018;23.986;2023-04-06T08:02:23;25.85;;;19.60;;
2213;SDS011;1113;42.018;23.986;2023-04-06T08:04:50;28.08;;;19.05;;
2213;SDS011;1113;42.018;23.986;2023-04-06T08:07:16;26.83;;;19.30;;
2213;SDS011;1113;42.018;23.986;2023-04-06T08:09:43;24.77;;;18.88;;
2213;SDS011;1113;42.018;23.986;2023-04-06T08:12:10;25.85;;;19.23;;
2213;SDS011;1113;42.018;23.986;2023-04-06T08:14:38;25.90;;;19.45;;
2213;SDS011;1113;42.018;23.986;2023-04-06T08:17:04;23.63;;;17.70;;
2213;SDS011;1113;42.018;23.986;2023-04-06T08:19:31;26.23;;;18.10;;
2213;SDS011;1113;42.018;23.986;2023-04-06T08:21:57;27.13;;;17.85;;
2213;SDS011;1113;42.018;23.986;2023-04-06T08:24:24;23.67;;;16.58;;
2213;SDS011;1113;42.018;23.986;2023-04-06T08:26:51;20.30;;;16.48;;
2213;SDS011;1113;42.018;23.986;2023-04-06T08:29:17;25.42;;;18.95;;
2213;SDS011;1113;42.018;23.986;2023-04-06T08:31:46;24.88;;;14.50;;
2213;SDS011;1113;42.018;23.986;2023-04-06T08:34:12;21.08;;;14.98;;
2213;SDS011;1113;42.018;23.986;2023-04-06T08:36:39;18.15;;;12.18;;
2213;SDS011;1113;42.018;23.986;2023-04-06T08:39:05;21.65;;;15.30;;
2213;SDS011;1113;42.018;23.986;2023-04-06T08:44:03;24.02;;;17.42;;
2213;SDS011;1113;42.018;23.986;2023-04-06T08:46:30;20.00;;;14.57;;
2213;SDS011;1113;42.018;23.986;2023-04-06T08:48:58;22.33;;;15.20;;
2213;SDS011;1113;42.018;23.986;2023-04-06T08:51:25;18.25;;;12.90;;
2213;SDS011;1113;42.018;23.986;2023-04-06T08:53:52;23.85;;;15.27;;
2213;SDS011;1113;42.018;23.986;2023-04-06T08:56:19;20.65;;;15.45;;
2213;SDS011;1113;42.018;23.986;2023-04-06T08:58:46;16.42;;;12.60;;
2213;SDS011;1113;42.018;23.986;2023-04-06T09:01:14;16.45;;;11.65;;
2213;SDS011;1113;42.018;23.986;2023-04-06T09:03:41;18.13;;;14.75;;
2213;SDS011;1113;42.018;23.986;2023-04-06T09:06:10;17.90;;;12.98;;
2213;SDS011;1113;42.018;23.986;2023-04-06T09:08:38;16.15;;;11.02;;
2213;SDS011;1113;42.018;23.986;2023-04-06T09:11:05;13.60;;;10.52;;
2213;SDS011;1113;42.018;23.986;2023-04-06T09:13:31;18.73;;;13.00;;
2213;SDS011;1113;42.018;23.986;2023-04-06T09:16:10;17.48;;;12.30;;
2213;SDS011;1113;42.018;23.986;2023-04-06T09:18:36;15.25;;;12.23;;
2213;SDS011;1113;42.018;23.986;2023-04-06T09:21:03;15.25;;;11.15;;
2213;SDS011;1113;42.018;23.986;2023-04-06T09:23:32;16.33;;;11.43;;
2213;SDS011;1113;42.018;23.986;2023-04-06T09:26:05;14.45;;;11.05;;
2213;SDS011;1113;42.018;23.986;2023-04-06T09:28:40;17.83;;;12.80;;
2213;SDS011;1113;42.018;23.986;2023-04-06T09:31:07;15.15;;;11.30;;
2213;SDS011;1113;42.018;23.986;2023-04-06T09:33:36;15.03;;;11.87;;
2213;SDS011;1113;42.018;23.986;2023-04-06T09:36:03;14.30;;;11.53;;
2213;SDS011;1113;42.018;23.986;2023-04-06T09:38:31;14.77;;;12.20;;
2213;SDS011;1113;42.018;23.986;2023-04-06T09:40:58;13.50;;;11.03;;
2213;SDS011;1113;42.018;23.986;2023-04-06T09:43:25;13.27;;;11.07;;
2213;SDS011;1113;42.018;23.986;2023-04-06T09:45:52;17.30;;;11.43;;
2213;SDS011;1113;42.018;23.986;2023-04-06T09:48:19;16.73;;;12.10;;
2213;SDS011;1113;42.018;23.986;2023-04-06T09:50:46;15.53;;;11.60;;
2213;SDS011;1113;42.018;23.986;2023-04-06T09:53:13;13.43;;;11.00;;
2213;SDS011;1113;42.018;23.986;2023-04-06T09:55:42;16.07;;;12.77;;
2213;SDS011;1113;42.018;23.986;2023-04-06T09:58:09;12.33;;;11.03;;
2213;SDS011;1113;42.018;23.986;2023-04-06T10:00:40;14.73;;;12.47;;
2213;SDS011;1113;42.018;23.986;2023-04-06T10:03:10;14.13;;;12.00;;
2213;SDS011;1113;42.018;23.986;2023-04-06T10:05:42;12.60;;;10.63;;
2213;SDS011;1113;42.018;23.986;2023-04-06T10:08:09;13.50;;;9.93;;
2213;SDS011;1113;42.018;23.986;2023-04-06T10:10:36;12.60;;;9.00;;
2213;SDS011;1113;42.018;23.986;2023-04-06T10:13:04;12.33;;;9.80;;
2213;SDS011;1113;42.018;23.986;2023-04-06T10:15:31;14.70;;;11.13;;
2213;SDS011;1113;42.018;23.986;2023-04-06T10:17:58;10.00;;;7.97;;
2213;SDS011;1113;42.018;23.986;2023-04-06T10:20:27;9.40;;;7.70;;
2213;SDS011;1113;42.018;23.986;2023-04-06T10:22:55;11.03;;;9.23;;
2213;SDS011;1113;42.018;23.986;2023-04-06T10:25:28;10.07;;;8.70;;
2213;SDS011;1113;42.018;23.986;2023-04-06T10:28:01;9.73;;;8.10;;
2213;SDS011;1113;42.018;23.986;2023-04-06T10:30:32;11.03;;;8.63;;
2213;SDS011;1113;42.018;23.986;2023-04-06T10:32:59;10.10;;;8.30;;
2213;SDS011;1113;42.018;23.986;2023-04-06T10:35:35;19.17;;;14.53;;
2213;SDS011;1113;42.018;23.986;2023-04-06T10:38:03;8.03;;;6.10;;
2213;SDS011;1113;42.018;23.986;2023-04-06T10:40:30;9.80;;;6.70;;
2213;SDS011;1113;42.018;23.986;2023-04-06T10:43:07;9.60;;;7.80;;
2213;SDS011;1113;42.018;23.986;2023-04-06T10:45:35;10.77;;;8.47;;
2213;SDS011;1113;42.018;23.986;2023-04-06T10:48:14;14.27;;;10.50;;
2213;SDS011;1113;42.018;23.986;2023-04-06T10:50:41;11.73;;;9.33;;
2213;SDS011;1113;42.018;23.986;2023-04-06T10:53:08;9.43;;;8.00;;
2213;SDS011;1113;42.018;23.986;2023-04-06T10:55:34;10.30;;;8.70;;
2213;SDS011;1113;42.018;23.986;2023-04-06T10:58:05;10.17;;;7.80;;
2213;SDS011;1113;42.018;23.986;2023-04-06T11:00:32;12.37;;;8.90;;
2213;SDS011;1113;42.018;23.986;2023-04-06T11:03:00;9.80;;;6.77;;
2213;SDS011;1113;42.018;23.986;2023-04-06T11:05:27;10.27;;;8.10;;
2213;SDS011;1113;42.018;23.986;2023-04-06T11:07:53;10.43;;;7.30;;
2213;SDS011;1113;42.018;23.986;2023-04-06T11:10:20;10.73;;;9.00;;
2213;SDS011;1113;42.018;23.986;2023-04-06T11:12:52;18.47;;;12.13;;
2213;SDS011;1113;42.018;23.986;2023-04-06T11:15:19;9.93;;;7.50;;
2213;SDS011;1113;42.018;23.986;2023-04-06T11:17:45;9.50;;;7.07;;
2213;SDS011;1113;42.018;23.986;2023-04-06T11:20:13;14.33;;;11.20;;
2213;SDS011;1113;42.018;23.986;2023-04-06T11:22:49;12.77;;;8.47;;
2213;SDS011;1113;42.018;23.986;2023-04-06T11:25:16;10.67;;;9.10;;
2213;SDS011;1113;42.018;23.986;2023-04-06T11:27:43;9.00;;;7.77;;
2213;SDS011;1113;42.018;23.986;2023-04-06T11:30:11;10.53;;;9.40;;
2213;SDS011;1113;42.018;23.986;2023-04-06T11:32:39;15.03;;;12.60;;
2213;SDS011;1113;42.018;23.986;2023-04-06T11:35:06;14.70;;;11.03;;
2213;SDS011;1113;42.018;23.986;2023-04-06T11:37:34;12.67;;;9.03;;
2213;SDS011;1113;42.018;23.986;2023-04-06T11:40:01;9.43;;;8.43;;
2213;SDS011;1113;42.018;23.986;2023-04-06T11:42:28;15.40;;;11.83;;
2213;SDS011;1113;42.018;23.986;2023-04-06T11:44:55;11.63;;;9.50;;
2213;SDS011;1113;42.018;23.986;2023-04-06T11:47:27;11.97;;;10.40;;
2213;SDS011;1113;42.018;23.986;2023-04-06T11:49:53;10.57;;;8.93;;
2213;SDS011;1113;42.018;23.986;2023-04-06T11:52:22;8.87;;;7.10;;
2213;SDS011;1113;42.018;23.986;2023-04-06T11:54:50;8.47;;;6.80;;
2213;SDS011;1113;42.018;23.986;2023-04-06T11:57:18;8.30;;;7.00;;
2213;SDS011;1113;42.018;23.986;2023-04-06T11:59:45;9.23;;;7.73;;
2213;SDS011;1113;42.018;23.986;2023-04-06T12:02:12;7.47;;;5.63;;
2213;SDS011;1113;42.018;23.986;2023-04-06T12:04:38;9.60;;;7.90;;
2213;SDS011;1113;42.018;23.986;2023-04-06T12:07:05;9.27;;;7.97;;
2213;SDS011;1113;42.018;23.986;2023-04-06T12:09:31;12.07;;;9.40;;
2213;SDS011;1113;42.018;23.986;2023-04-06T12:12:01;9.33;;;8.03;;
2213;SDS011;1113;42.018;23.986;2023-04-06T12:14:30;8.70;;;7.70;;
2213;SDS011;1113;42.018;23.986;2023-04-06T12:16:56;12.70;;;9.27;;
2213;SDS011;1113;42.018;23.986;2023-04-06T12:19:23;16.83;;;11.50;;
2213;SDS011;1113;42.018;23.986;2023-04-06T12:21:51;10.97;;;8.80;;
2213;SDS011;1113;42.018;23.986;2023-04-06T12:24:17;9.40;;;7.53;;
2213;SDS011;1113;42.018;23.986;2023-04-06T12:26:44;9.67;;;8.03;;
2213;SDS011;1113;42.018;23.986;2023-04-06T12:29:12;10.63;;;8.43;;
2213;SDS011;1113;42.018;23.986;2023-04-06T12:31:39;9.47;;;8.27;;
2213;SDS011;1113;42.018;23.986;2023-04-06T12:34:08;10.50;;;8.10;;
2213;SDS011;1113;42.018;23.986;2023-04-06T12:36:36;13.33;;;11.50;;
2213;SDS011;1113;42.018;23.986;2023-04-06T12:39:02;10.37;;;9.27;;
2213;SDS011;1113;42.018;23.986;2023-04-06T12:41:29;11.30;;;10.13;;
2213;SDS011;1113;42.018;23.986;2023-04-06T12:43:56;8.10;;;7.13;;
2213;SDS011;1113;42.018;23.986;2023-04-06T12:46:25;10.50;;;8.00;;
2213;SDS011;1113;42.018;23.986;2023-04-06T12:48:52;9.87;;;8.87;;
2213;SDS011;1113;42.018;23.986;2023-04-06T12:51:20;9.03;;;8.13;;
2213;SDS011;1113;42.018;23.986;2023-04-06T12:53:47;10.13;;;9.13;;
2213;SDS011;1113;42.018;23.986;2023-04-06T12:56:14;10.70;;;9.00;;
2213;SDS011;1113;42.018;23.986;2023-04-06T12:58:42;10.30;;;8.67;;
2213;SDS011;1113;42.018;23.986;2023-04-06T13:01:08;9.53;;;7.80;;
2213;SDS011;1113;42.018;23.986;2023-04-06T13:03:38;10.93;;;9.50;;
2213;SDS011;1113;42.018;23.986;2023-04-06T13:06:04;10.10;;;7.77;;
2213;SDS011;1113;42.018;23.986;2023-04-06T13:08:31;9.40;;;7.73;;
2213;SDS011;1113;42.018;23.986;2023-04-06T13:10:57;9.70;;;8.63;;
2213;SDS011;1113;42.018;23.986;2023-04-06T13:13:25;9.13;;;8.10;;
2213;SDS011;1113;42.018;23.986;2023-04-06T13:15:52;14.00;;;10.40;;
2213;SDS011;1113;42.018;23.986;2023-04-06T13:18:19;19.63;;;17.53;;
2213;SDS011;1113;42.018;23.986;2023-04-06T13:20:47;9.10;;;7.83;;
2213;SDS011;1113;42.018;23.986;2023-04-06T13:23:14;11.07;;;8.27;;
2213;SDS011;1113;42.018;23.986;2023-04-06T13:25:41;11.40;;;8.87;;
2213;SDS011;1113;42.018;23.986;2023-04-06T13:28:07;12.23;;;9.53;;
2213;SDS011;1113;42.018;23.986;2023-04-06T13:30:35;14.53;;;9.80;;
2213;SDS011;1113;42.018;23.986;2023-04-06T13:33:01;11.53;;;9.87;;
2213;SDS011;1113;42.018;23.986;2023-04-06T13:35:31;11.90;;;10.60;;
2213;SDS011;1113;42.018;23.986;2023-04-06T13:37:59;10.50;;;8.17;;
2213;SDS011;1113;42.018;23.986;2023-04-06T13:40:26;11.03;;;8.40;;
2213;SDS011;1113;42.018;23.986;2023-04-06T13:42:53;12.77;;;10.83;;
2213;SDS011;1113;42.018;23.986;2023-04-06T13:45:19;11.87;;;10.47;;
2213;SDS011;1113;42.018;23.986;2023-04-06T13:47:46;12.07;;;9.37;;
2213;SDS011;1113;42.018;23.986;2023-04-06T13:50:12;10.07;;;8.73;;
2213;SDS011;1113;42.018;23.986;2023-04-06T13:52:39;13.97;;;10.50;;
2213;SDS011;1113;42.018;23.986;2023-04-06T13:55:07;13.70;;;10.37;;
2213;SDS011;1113;42.018;23.986;2023-04-06T13:57:34;9.30;;;8.23;;
2213;SDS011;1113;42.018;23.986;2023-04-06T14:00:01;14.00;;;9.90;;
2213;SDS011;1113;42.018;23.986;2023-04-06T14:02:31;11.50;;;8.07;;
2213;SDS011;1113;42.018;23.986;2023-04-06T14:04:58;14.77;;;11.37;;
2213;SDS011;1113;42.018;23.986;2023-04-06T14:07:24;11.23;;;9.57;;
2213;SDS011;1113;42.018;23.986;2023-04-06T14:09:51;17.03;;;10.67;;
2213;SDS011;1113;42.018;23.986;2023-04-06T14:12:19;8.17;;;7.10;;
2213;SDS011;1113;42.018;23.986;2023-04-06T14:14:45;10.33;;;8.97;;
2213;SDS011;1113;42.018;23.986;2023-04-06T14:17:12;9.87;;;7.80;;
2213;SDS011;1113;42.018;23.986;2023-04-06T14:19:39;9.30;;;8.10;;
2213;SDS011;1113;42.018;23.986;2023-04-06T14:22:05;10.67;;;9.40;;
2213;SDS011;1113;42.018;23.986;2023-04-06T14:24:32;13.20;;;11.03;;
2213;SDS011;1113;42.018;23.986;2023-04-06T14:26:59;14.53;;;10.73;;
2213;SDS011;1113;42.018;23.986;2023-04-06T14:29:27;13.03;;;10.33;;
2213;SDS011;1113;42.018;23.986;2023-04-06T14:31:53;14.73;;;11.27;;
2213;SDS011;1113;42.018;23.986;2023-04-06T14:34:24;13.70;;;11.67;;
2213;SDS011;1113;42.018;23.986;2023-04-06T14:36:51;16.50;;;12.57;;
2213;SDS011;1113;42.018;23.986;2023-04-06T14:39:17;17.70;;;13.40;;
2213;SDS011;1113;42.018;23.986;2023-04-06T14:41:44;18.00;;;12.90;;